Time;durP1;ratioP1;P1;durP2;ratioP2;P2;SDS_P1;SDS_P2;PMS_P1;PMS_P2;Temp;Humidity;BMP_temperature;BMP_pressure;BME280_temperature;BME280_humidity;BME280_pressure;Samples;Min_cycle;Max_cycle;Signal;HPM_P1;HPM_P2
2024/03/25 00:02:44;;;;;;;13.10;6.47;;;;;;;5.05;100.00;99016.29;4957231;56;1138542;-85
2024/03/25 00:07:51;;;;;;;13.38;6.84;;;;;;;5.17;100.00;99012.72;5037087;56;1138458;-82
2024/03/25 00:12:57;;;;;;;11.75;7.42;;;;;;;5.15;100.00;99009.86;5019979;56;1138331;-83
2024/03/25 00:18:03;;;;;;;12.77;7.77;;;;;;;5.12;100.00;99007.48;5013442;56;1136485;-85
2024/03/25 00:23:08;;;;;;;11.00;6.37;;;;;;;5.14;100.00;99007.72;5071928;56;1136546;-84
2024/03/25 00:28:14;;;;;;;15.97;8.10;;;;;;;5.18;100.00;99004.38;5139862;55;1138804;-85
2024/03/25 00:33:20;;;;;;;12.87;6.97;;;;;;;5.24;100.00;99007.33;5098841;55;1138407;-84
2024/03/25 00:38:25;;;;;;;11.93;6.77;;;;;;;5.26;100.00;99004.59;4900011;58;1138530;-83
2024/03/25 00:43:31;;;;;;;19.07;9.60;;;;;;;5.27;100.00;99003.64;5069957;57;1136542;-84
2024/03/25 00:48:38;;;;;;;13.17;7.80;;;;;;;5.19;100.00;99000.81;5138222;56;1136864;-84
2024/03/25 00:53:44;;;;;;;12.70;7.57;;;;;;;5.15;100.00;99000.69;5087198;56;1136875;-85
2024/03/25 00:58:50;;;;;;;10.60;6.40;;;;;;;5.11;100.00;99001.41;5058280;57;1138736;-83
2024/03/25 01:03:55;;;;;;;14.17;7.70;;;;;;;5.18;100.00;98996.52;5078092;57;1138610;-83
2024/03/25 01:09:01;;;;;;;12.20;7.93;;;;;;;5.26;100.00;98996.25;5057936;57;1138522;-82
2024/03/25 01:14:07;;;;;;;18.47;9.60;;;;;;;5.29;100.00;98991.25;5058173;56;1138528;-83
2024/03/25 01:19:12;;;;;;;15.00;7.97;;;;;;;5.30;100.00;98985.88;5078038;56;1138537;-83
2024/03/25 01:24:18;;;;;;;10.43;6.47;;;;;;;5.32;100.00;98986.24;5058344;56;1136474;-84
2024/03/25 01:29:23;;;;;;;7.97;4.97;;;;;;;5.24;100.00;98985.05;5068136;56;1136534;-85
2024/03/25 01:34:29;;;;;;;11.83;6.97;;;;;;;5.19;100.00;98981.98;5154431;56;1136793;-86
2024/03/25 01:39:35;;;;;;;8.00;5.50;;;;;;;5.13;100.00;98976.39;5007068;56;1138791;-83
2024/03/25 01:44:40;;;;;;;8.43;5.10;;;;;;;5.12;100.00;98975.56;4976339;57;1136373;-84
2024/03/25 01:49:46;;;;;;;9.43;5.97;;;;;;;5.10;100.00;98979.25;5018086;57;1136344;-83
2024/03/25 01:54:52;;;;;;;10.24;6.90;;;;;;;5.09;100.00;98971.03;5149844;55;1136838;-85
2024/03/25 01:59:58;;;;;;;9.28;6.20;;;;;;;5.11;100.00;98974.36;5142234;55;1138758;-82
2024/03/25 02:05:06;;;;;;;11.00;6.20;;;;;;;5.15;100.00;98979.25;5142380;55;1136576;-83
2024/03/25 02:10:16;;;;;;;11.07;7.13;;;;;;;5.12;100.00;98976.03;5162655;55;1136419;-83
2024/03/25 02:15:21;;;;;;;10.70;6.20;;;;;;;5.07;100.00;98975.08;5141858;55;1136163;-83
2024/03/25 02:20:27;;;;;;;9.23;5.63;;;;;;;5.07;100.00;98976.39;5142256;55;1138266;-84
2024/03/25 02:25:34;;;;;;;6.55;5.33;;;;;;;5.07;100.00;98977.70;5160795;55;1136316;-83
2024/03/25 02:30:40;;;;;;;8.00;5.58;;;;;;;5.10;100.00;98977.46;5070480;55;1136985;-84
2024/03/25 02:35:47;;;;;;;8.80;5.77;;;;;;;5.13;100.00;98974.60;5120670;55;1136612;-83
2024/03/25 02:40:52;;;;;;;10.38;6.60;;;;;;;5.12;100.00;98976.03;5143041;56;1136505;-83
2024/03/25 02:45:58;;;;;;;11.85;6.97;;;;;;;5.06;100.00;98983.89;5162999;56;1136295;-83
2024/03/25 02:51:04;;;;;;;9.03;5.97;;;;;;;5.07;100.00;98980.80;5133209;56;1136228;-84
2024/03/25 02:56:10;;;;;;;9.70;6.07;;;;;;;5.08;100.00;98980.67;5116805;56;1136281;-82
2024/03/25 03:01:17;;;;;;;6.05;5.37;;;;;;;5.09;100.00;98986.75;5164089;56;1136642;-83
2024/03/25 03:06:23;;;;;;;9.47;6.50;;;;;;;5.12;100.00;98986.52;5063500;56;1167926;-84
2024/03/25 03:11:28;;;;;;;11.00;7.20;;;;;;;5.15;100.00;98988.90;5092951;56;1227402;-83
2024/03/25 03:16:34;;;;;;;13.80;8.23;;;;;;;5.21;100.00;98997.09;5144003;56;1138730;-82
2024/03/25 03:21:40;;;;;;;13.03;7.10;;;;;;;5.24;100.00;98994.70;5105397;56;1136726;-83
2024/03/25 03:26:46;;;;;;;17.27;9.50;;;;;;;5.22;100.00;98995.30;5040180;56;1136576;-82
2024/03/25 03:31:51;;;;;;;15.60;7.97;;;;;;;5.18;100.00;99000.45;5040025;57;1136839;-84
2024/03/25 03:36:57;;;;;;;12.77;7.40;;;;;;;5.13;100.00;99003.43;5082029;56;1136299;-85
2024/03/25 03:42:03;;;;;;;15.53;7.13;;;;;;;5.12;100.00;99008.79;5124112;56;1138370;-84
2024/03/25 03:47:08;;;;;;;12.27;7.53;;;;;;;5.19;100.00;99006.89;5123940;56;1138454;-85
2024/03/25 03:52:14;;;;;;;11.83;7.63;;;;;;;5.22;100.00;99008.41;5150918;55;1138916;-83
2024/03/25 03:57:20;;;;;;;14.73;8.33;;;;;;;5.30;100.00;99012.09;5175988;55;1138644;-82
2024/03/25 04:02:27;;;;;;;13.80;8.47;;;;;;;5.29;100.00;99014.36;5229799;55;1138378;-83
2024/03/25 04:07:34;;;;;;;10.67;6.87;;;;;;;5.29;100.00;99024.02;5250236;55;1136664;-82
2024/03/25 04:12:41;;;;;;;11.70;7.23;;;;;;;5.21;100.00;99018.05;5229828;55;1137259;-85
2024/03/25 04:17:48;;;;;;;10.93;7.30;;;;;;;5.16;100.00;99021.54;5211620;55;1236231;-83
2024/03/25 04:22:54;;;;;;;8.43;5.60;;;;;;;5.16;100.00;99029.88;5088762;56;1224662;-83
2024/03/25 04:28:00;;;;;;;16.03;7.60;;;;;;;5.19;100.00;99028.33;5161283;56;1226253;-84
2024/03/25 04:33:06;;;;;;;7.60;6.00;;;;;;;5.20;100.00;99033.42;5140723;56;1187745;-82
2024/03/25 04:38:12;;;;;;;6.07;4.93;;;;;;;5.26;100.00;99037.35;5140679;55;1238140;-83
2024/03/25 04:43:17;;;;;;;8.23;5.33;;;;;;;5.21;100.00;99043.43;5164454;55;1214186;-85
2024/03/25 04:48:23;;;;;;;7.37;5.47;;;;;;;5.11;100.00;99051.20;5228200;55;1230627;-84
2024/03/25 04:53:29;;;;;;;8.07;4.83;;;;;;;5.07;100.00;99056.78;5226815;55;1238371;-83
2024/03/25 04:58:35;;;;;;;6.65;5.22;;;;;;;5.05;100.00;99057.38;5240952;55;1223194;-84
2024/03/25 05:03:40;;;;;;;7.07;5.50;;;;;;;5.05;100.00;99066.55;5219556;55;1244629;-85
2024/03/25 05:08:47;;;;;;;6.83;5.27;;;;;;;5.04;100.00;99070.15;5233276;55;1232185;-83
2024/03/25 05:13:52;;;;;;;7.17;5.08;;;;;;;4.89;100.00;99048.09;5206579;55;1250992;-84
2024/03/25 05:18:58;;;;;;;6.50;5.45;;;;;;;5.04;100.00;99077.50;5161705;56;1227909;-83
2024/03/25 05:24:04;;;;;;;7.08;5.25;;;;;;;5.08;100.00;99088.59;5141283;56;1225525;-85
2024/03/25 05:29:10;;;;;;;6.60;5.43;;;;;;;5.05;100.00;99086.20;5141295;55;1230072;-84
2024/03/25 05:34:15;;;;;;;5.30;4.80;;;;;;;5.05;100.00;99096.20;5101976;56;1231521;-82
2024/03/25 05:39:21;;;;;;;6.77;5.43;;;;;;;5.07;100.00;99092.99;5056858;56;1222804;-85
2024/03/25 05:44:27;;;;;;;8.38;5.45;;;;;;;5.04;100.00;99101.09;5003277;56;1136613;-83
2024/03/25 05:49:34;;;;;;;6.00;5.13;;;;;;;5.07;100.00;99104.78;5033818;56;1134520;-84
2024/03/25 05:54:40;;;;;;;7.17;5.60;;;;;;;5.05;100.00;99101.45;5031323;56;1136907;-84
2024/03/25 05:59:46;;;;;;;8.93;5.40;;;;;;;5.09;100.00;99112.53;5113867;55;1137028;-82
2024/03/25 06:10:41;;;;;;;8.83;5.50;;;;;;;5.18;100.00;99121.84;5056754;55;1198754;-82
2024/03/25 06:15:49;;;;;;;5.95;5.45;;;;;;;5.25;100.00;99125.64;4887716;58;1225653;-83
2024/03/25 06:20:54;;;;;;;8.85;6.10;;;;;;;5.11;100.00;99110.16;5004124;57;1170126;-84
2024/03/25 06:26:00;;;;;;;6.20;5.58;;;;;;;5.30;100.00;99141.02;4995424;57;1134696;-85
2024/03/25 06:36:29;;;;;;;8.78;5.67;;;;;;;5.23;100.00;99151.61;5000657;56;1134527;-83
2024/03/25 06:41:35;;;;;;;8.97;6.27;;;;;;;5.22;100.00;99153.39;5004972;57;1136758;-86
2024/03/25 06:46:41;;;;;;;6.00;5.40;;;;;;;5.27;100.00;99154.36;5020999;56;1136187;-87
2024/03/25 06:51:47;;;;;;;8.47;7.57;;;;;;;5.37;100.00;99163.64;4934884;56;1136679;-85
2024/03/25 06:56:54;;;;;;;9.13;6.50;;;;;;;5.39;100.00;99178.78;4853588;59;1143637;-82
2024/03/25 07:01:59;;;;;;;8.38;7.05;;;;;;;5.42;100.00;99185.94;4992144;56;1134508;-80
2024/03/25 07:07:05;;;;;;;7.03;6.20;;;;;;;5.45;100.00;99186.18;4928331;56;1136742;-82
2024/03/25 07:12:11;;;;;;;6.70;6.10;;;;;;;5.49;100.00;99191.55;5034185;56;1136674;-81
2024/03/25 07:17:17;;;;;;;7.90;6.70;;;;;;;5.55;100.00;99197.14;5074665;56;1136410;-84
2024/03/25 07:22:22;;;;;;;8.33;7.10;;;;;;;5.62;100.00;99207.52;5069919;56;1136544;-86
2024/03/25 07:27:28;;;;;;;8.90;7.37;;;;;;;5.68;100.00;99213.22;5013902;56;1136701;-84
2024/03/25 07:32:35;;;;;;;13.67;11.23;;;;;;;5.62;100.00;99215.39;5031442;57;1134538;-84
2024/03/25 07:37:40;;;;;;;11.83;7.97;;;;;;;5.61;100.00;99216.81;4999305;56;1140691;-84
2024/03/25 07:42:46;;;;;;;11.10;9.13;;;;;;;5.58;100.00;99222.30;5027051;56;1138798;-83
2024/03/25 07:47:52;;;;;;;8.08;7.28;;;;;;;5.59;100.00;99236.60;5028766;56;1138845;-85
2024/03/25 07:52:58;;;;;;;13.90;8.93;;;;;;;5.63;100.00;99232.80;5017288;57;1138742;-84
2024/03/25 07:58:04;;;;;;;12.10;10.08;;;;;;;5.66;100.00;99244.34;5028808;54;1138585;-83
2024/03/25 08:03:10;;;;;;;12.33;8.33;;;;;;;5.68;100.00;99246.01;5034728;56;1140964;-84
2024/03/25 08:08:16;;;;;;;9.53;8.47;;;;;;;5.71;100.00;99249.23;5069811;56;1138785;-85
2024/03/25 08:13:21;;;;;;;11.60;9.73;;;;;;;5.74;100.00;99263.91;5001858;57;1136598;-83
2024/03/25 08:18:27;;;;;;;14.00;10.33;;;;;;;5.74;100.00;99269.16;5043403;57;1138576;-81
2024/03/25 08:23:33;;;;;;;12.90;10.10;;;;;;;5.75;100.00;99278.22;4923672;58;1140726;-82
2024/03/25 08:28:38;;;;;;;17.27;10.87;;;;;;;5.76;100.00;99286.45;4971507;58;1140544;-82
2024/03/25 08:33:44;;;;;;;10.27;8.60;;;;;;;5.76;100.00;99291.70;4935510;57;1140901;-82
2024/03/25 08:38:51;;;;;;;14.60;10.25;;;;;;;5.80;100.00;99293.61;4881851;58;1138940;-82
2024/03/25 08:43:56;;;;;;;12.85;9.15;;;;;;;5.70;100.00;99276.89;4891724;58;1140528;-83
2024/03/25 08:54:43;;;;;;;25.10;16.03;;;;;;;5.90;100.00;99294.59;4936749;57;1140821;-83
2024/03/25 08:59:36;;;;;;;10.87;9.43;;;;;;;5.96;100.00;99299.34;4942190;57;1140748;-82
2024/03/25 09:04:52;;;;;;;10.33;7.93;;;;;;;5.95;100.00;99307.72;4894641;58;1139106;-83
2024/03/25 09:15:22;;;;;;;13.30;9.38;;;;;;;6.00;100.00;99314.73;4802262;59;1138771;-83
2024/03/25 09:20:27;;;;;;;12.07;8.80;;;;;;;6.11;100.00;99316.52;4763068;60;1138702;-78
2024/03/25 09:25:33;;;;;;;11.80;8.63;;;;;;;6.17;100.00;99325.71;4911524;57;1138778;-81
2024/03/25 09:30:38;;;;;;;3.10;2.90;;;;;;;6.15;100.00;99334.18;5029403;57;1138990;-79
2024/03/25 09:35:45;;;;;;;3.50;2.80;;;;;;;5.96;100.00;99333.45;4875224;58;1136720;-80
2024/03/25 09:40:54;;;;;;;2.33;2.17;;;;;;;5.83;100.00;99340.58;4868709;58;1199631;-73
2024/03/25 09:46:00;;;;;;;3.30;3.00;;;;;;;5.85;100.00;99344.76;4726177;58;1136753;-74
2024/03/25 09:51:07;;;;;;;6.35;5.25;;;;;;;5.91;100.00;99353.98;4810353;59;1136901;-73
2024/03/25 09:56:15;;;;;;;5.50;5.00;;;;;;;5.99;100.00;99360.31;4833223;58;1136589;-73
2024/03/25 10:01:22;;;;;;;9.33;6.17;;;;;;;6.18;100.00;99357.58;4853789;58;1136705;-74
2024/03/25 10:06:28;;;;;;;3.70;3.30;;;;;;;6.36;100.00;99367.95;4898375;58;1136811;-73
2024/03/25 10:11:36;;;;;;;6.20;3.80;;;;;;;6.30;100.00;99372.36;4918885;57;1136565;-73
2024/03/25 10:16:41;;;;;;;4.80;3.53;;;;;;;6.15;100.00;99374.39;4850680;59;1136406;-74
2024/03/25 10:21:47;;;;;;;4.28;3.87;;;;;;;6.06;100.00;99380.84;4855379;58;1137014;-74
2024/03/25 10:26:57;;;;;;;14.90;9.10;;;;;;;6.07;100.00;99388.60;4872802;57;1136574;-75
2024/03/25 10:32:04;;;;;;;11.55;7.55;;;;;;;6.09;100.00;99396.36;4907866;57;1138894;-74
2024/03/25 10:37:11;;;;;;;73.37;21.07;;;;;;;6.09;100.00;99406.86;4958084;58;1138777;-73
2024/03/25 10:42:22;;;;;;;16.33;8.27;;;;;;;6.12;100.00;99394.31;4871671;59;1140994;-74
2024/03/25 10:47:31;;;;;;;11.17;7.20;;;;;;;6.23;100.00;99406.16;5071457;56;1138581;-73
2024/03/25 10:52:38;;;;;;;11.30;6.53;;;;;;;6.41;100.00;99401.27;5052342;56;1138704;-74
2024/03/25 10:57:44;;;;;;;24.10;10.40;;;;;;;6.59;100.00;99400.27;5094718;56;1138583;-73
2024/03/25 11:02:51;;;;;;;7.73;6.47;;;;;;;6.90;100.00;99402.13;5038699;56;1140635;-73
2024/03/25 11:07:56;;;;;;;6.62;5.55;;;;;;;7.34;100.00;99395.89;5022203;56;1136654;-73
2024/03/25 11:13:02;;;;;;;7.05;6.00;;;;;;;7.59;100.00;99396.03;4994407;56;1136604;-72
2024/03/25 11:18:19;;;;;;;7.17;6.30;;;;;;;7.67;100.00;99396.22;4912673;57;1136998;-74
2024/03/25 11:23:24;;;;;;;7.10;6.27;;;;;;;7.98;100.00;99397.11;4926960;57;1136768;-73
2024/03/25 11:28:30;;;;;;;6.07;5.50;;;;;;;8.18;100.00;99395.91;4967812;57;1136885;-74
2024/03/25 11:33:41;;;;;;;9.43;6.27;;;;;;;8.06;100.00;99410.48;4962891;57;1136655;-81
2024/03/25 11:38:49;;;;;;;6.43;5.10;;;;;;;7.90;100.00;99405.31;4976587;57;1136666;-82
2024/03/25 11:43:57;;;;;;;5.40;4.80;;;;;;;7.82;100.00;99408.58;5005739;57;1136928;-79
2024/03/25 11:49:02;;;;;;;5.78;5.20;;;;;;;7.79;100.00;99410.17;4935816;58;1137933;-80
2024/03/25 11:54:13;;;;;;;5.33;4.40;;;;;;;7.93;100.00;99411.64;4946439;58;1137032;-79
2024/03/25 11:59:19;;;;;;;3.63;2.43;;;;;;;8.25;100.00;99401.81;4948567;58;1136504;-79
2024/03/25 12:04:25;;;;;;;1.73;1.63;;;;;;;8.23;100.00;99414.31;4954337;58;1136459;-80
2024/03/25 12:14:57;;;;;;;3.67;2.42;;;;;;;7.89;100.00;99418.95;5044909;57;1136818;-74
2024/03/25 12:20:15;;;;;;;10.90;6.00;;;;;;;7.84;100.00;99426.39;4863529;59;1136954;-76
2024/03/25 12:25:20;;;;;;;4.63;3.80;;;;;;;7.81;100.00;99427.13;5006746;57;1138468;-75
2024/03/25 12:30:26;;;;;;;9.00;6.10;;;;;;;7.80;100.00;99427.61;5005742;57;1136841;-74
2024/03/25 12:35:35;;;;;;;4.03;3.63;;;;;;;7.82;100.00;99426.16;5020990;57;1136681;-87
2024/03/25 12:40:41;;;;;;;3.07;2.80;;;;;;;7.75;100.00;99435.08;5040572;57;1136451;-81
2024/03/25 12:45:47;;;;;;;2.60;2.40;;;;;;;7.65;100.00;99443.35;4985255;57;1173109;-73
2024/03/25 12:50:58;;;;;;;2.50;2.30;;;;;;;7.58;100.00;99447.47;4980009;57;1136693;-76
2024/03/25 12:56:00;;;;;;;3.02;2.72;;;;;;;7.59;100.00;99448.66;5021561;57;1146202;-74
2024/03/25 13:01:05;;;;;;;3.43;2.60;;;;;;;7.65;100.00;99452.09;4995897;57;1136558;-80
2024/03/25 13:06:11;;;;;;;3.00;2.70;;;;;;;7.79;100.00;99454.92;4910043;59;1136608;-77
2024/03/25 13:11:17;;;;;;;2.40;2.20;;;;;;;7.91;100.00;99458.33;4958772;58;1136595;-81
2024/03/25 13:16:22;;;;;;;2.07;1.80;;;;;;;8.15;100.00;99457.56;4813905;59;1136618;-79
2024/03/25 13:21:28;;;;;;;3.23;2.93;;;;;;;8.26;100.00;99465.39;4901902;58;1136955;-77
2024/03/25 13:26:34;;;;;;;6.57;3.83;;;;;;;8.26;100.00;99462.75;4883470;58;1136658;-78
2024/03/25 13:31:39;;;;;;;7.47;3.73;;;;;;;8.22;100.00;99457.41;4973680;57;1136517;-79
2024/03/25 13:36:45;;;;;;;7.67;3.97;;;;;;;8.26;100.00;99461.91;4902135;58;1136726;-80
2024/03/25 13:41:50;;;;;;;8.60;4.27;;;;;;;8.32;100.00;99462.28;4935560;56;1136498;-77
2024/03/25 13:46:56;;;;;;;9.90;5.08;;;;;;;8.42;100.00;99462.31;4952336;58;1136681;-79
2024/03/25 13:52:04;;;;;;;8.93;4.75;;;;;;;8.47;100.00;99469.35;4923274;58;1136631;-75
2024/03/25 13:57:09;;;;;;;13.73;5.63;;;;;;;8.55;100.00;99476.14;4890114;58;1136753;-78
2024/03/25 14:02:15;;;;;;;12.87;5.87;;;;;;;8.53;100.00;99484.66;4888461;58;1139078;-76
2024/03/25 14:07:21;;;;;;;11.50;5.67;;;;;;;8.57;100.00;99483.88;4934592;58;1138871;-76
2024/03/25 14:12:26;;;;;;;6.93;4.23;;;;;;;8.59;100.00;99481.47;4967902;57;1138824;-80
2024/03/25 14:17:32;;;;;;;11.90;4.03;;;;;;;8.62;100.00;99483.85;4993289;57;1136425;-78
2024/03/25 14:22:38;;;;;;;9.83;5.00;;;;;;;8.63;100.00;99480.25;5076840;57;1138635;-79
2024/03/25 14:27:43;;;;;;;9.93;5.17;;;;;;;8.63;100.00;99492.59;5035593;57;1136851;-78
2024/03/25 14:32:50;;;;;;;9.70;5.33;;;;;;;8.63;100.00;99492.11;4808128;60;1136554;-75
2024/03/25 14:37:55;;;;;;;10.13;5.42;;;;;;;8.67;100.00;99492.69;5056605;57;1136402;-76
2024/03/25 14:43:01;;;;;;;10.23;5.20;;;;;;;8.67;100.00;99480.83;5057053;57;1138548;-75
2024/03/25 14:48:07;;;;;;;12.07;5.17;;;;;;;8.64;100.00;99491.15;5050357;57;1138567;-78
2024/03/25 14:53:13;;;;;;;7.92;4.67;;;;;;;8.67;100.00;99496.16;5036757;57;1138564;-75
2024/03/25 14:58:19;;;;;;;11.68;5.15;;;;;;;8.89;100.00;99500.39;5019627;57;1136713;-76
2024/03/25 15:03:24;;;;;;;11.23;6.37;;;;;;;9.09;100.00;99494.71;5001140;57;1138895;-73
2024/03/25 15:08:32;;;;;;;9.33;3.83;;;;;;;9.18;100.00;99500.48;4884381;59;1138458;-79
2024/03/25 15:13:38;;;;;;;10.17;5.07;;;;;;;9.10;100.00;99508.25;4877671;59;1136740;-73
2024/03/25 15:18:44;;;;;;;8.87;4.77;;;;;;;8.90;100.00;99512.62;4972706;57;1139063;-73
2024/03/25 15:23:49;;;;;;;10.57;4.53;;;;;;;8.77;100.00;99522.55;5007013;57;1136571;-77
2024/03/25 15:28:55;;;;;;;14.07;6.43;;;;;;;8.78;100.00;99528.18;5019551;57;1138718;-78
2024/03/25 15:34:01;;;;;;;14.93;6.67;;;;;;;8.93;100.00;99512.84;5035328;57;1138437;-78
2024/03/25 15:39:07;;;;;;;12.90;5.45;;;;;;;9.19;100.00;99521.94;5019672;57;1138723;-75
2024/03/25 15:44:15;;;;;;;14.07;5.90;;;;;;;9.43;100.00;99515.00;4974654;57;1138702;-78
2024/03/25 15:49:21;;;;;;;21.00;7.23;;;;;;;9.56;100.00;99512.10;5039006;57;1138975;-79
2024/03/25 15:54:27;;;;;;;17.05;6.03;;;;;;;9.54;100.00;99520.16;4979059;57;1139055;-76
2024/03/25 15:59:32;;;;;;;10.50;5.53;;;;;;;9.42;100.00;99526.53;4961393;57;1138558;-79
2024/03/25 16:04:38;;;;;;;12.00;7.03;;;;;;;9.35;100.00;99528.86;5035262;57;1138684;-79
2024/03/25 16:09:45;;;;;;;56.07;32.03;;;;;;;9.32;100.00;99532.28;4979484;57;1138740;-76
2024/03/25 16:14:50;;;;;;;27.23;10.20;;;;;;;9.24;100.00;99529.47;4804038;58;1140897;-79
2024/03/25 16:19:56;;;;;;;12.53;4.87;;;;;;;9.16;100.00;99548.62;4944571;57;1140920;-77
2024/03/25 16:25:02;;;;;;;6.63;4.33;;;;;;;9.04;100.00;99553.13;4947702;58;1138686;-76
2024/03/25 16:30:09;;;;;;;8.90;4.83;;;;;;;8.94;100.00;99548.79;4957059;58;1136693;-77
2024/03/25 16:35:15;;;;;;;15.97;8.63;;;;;;;8.84;100.00;99548.76;4925231;58;1136589;-79
2024/03/25 16:40:20;;;;;;;10.97;4.70;;;;;;;8.75;100.00;99550.36;4952456;58;1138836;-77
2024/03/25 16:45:26;;;;;;;9.83;5.87;;;;;;;8.65;100.00;99552.61;4949754;58;1138537;-77
2024/03/25 16:50:32;;;;;;;9.07;5.97;;;;;;;8.53;100.00;99557.61;4920367;58;1136541;-78
2024/03/25 16:55:38;;;;;;;11.93;5.67;;;;;;;8.43;100.00;99570.22;4926806;58;1136743;-76
2024/03/25 17:00:44;;;;;;;7.53;4.37;;;;;;;8.31;100.00;99575.17;4966343;58;1138484;-78
2024/03/25 17:05:53;;;;;;;4.93;4.37;;;;;;;8.17;100.00;99587.81;4966950;58;1136476;-83
2024/03/25 17:10:59;;;;;;;8.00;4.93;;;;;;;8.01;100.00;99598.28;4964714;58;1246732;-76
2024/03/25 17:16:06;;;;;;;10.07;4.90;;;;;;;7.84;100.00;99608.03;4963031;58;1136555;-78
2024/03/25 17:21:11;;;;;;;16.95;6.72;;;;;;;7.78;100.00;99613.81;4999534;57;1138811;-76
2024/03/25 17:26:17;;;;;;;8.60;5.87;;;;;;;7.70;100.00;99639.41;5001189;57;1138795;-82
2024/03/25 17:31:23;;;;;;;11.03;6.17;;;;;;;7.70;100.00;99639.41;5037951;57;1136624;-79
2024/03/25 17:36:29;;;;;;;24.33;14.30;;;;;;;7.69;100.00;99648.73;4961756;57;1138721;-77
2024/03/25 17:41:35;;;;;;;64.90;31.65;;;;;;;7.67;100.00;99659.86;4994454;57;1140931;-77
2024/03/25 17:46:40;;;;;;;24.87;12.73;;;;;;;7.73;100.00;99660.23;4998662;57;1141068;-78
2024/03/25 17:51:46;;;;;;;22.80;12.90;;;;;;;7.80;100.00;99660.55;4956741;57;1138365;-79
2024/03/25 17:56:52;;;;;;;18.97;9.77;;;;;;;7.80;100.00;99658.41;4943857;57;1138507;-79
2024/03/25 18:01:57;;;;;;;11.53;6.73;;;;;;;7.79;100.00;99667.28;4876508;58;1139052;-80
2024/03/25 18:07:03;;;;;;;12.53;7.27;;;;;;;7.77;100.00;99668.72;4988774;57;1138916;-79
2024/03/25 18:12:09;;;;;;;31.93;12.93;;;;;;;7.77;100.00;99675.30;5019556;57;1138880;-76
2024/03/25 18:17:15;;;;;;;30.10;13.83;;;;;;;7.78;100.00;99680.92;5018837;57;1140795;-76
2024/03/25 18:22:21;;;;;;;25.03;11.20;;;;;;;7.78;100.00;99680.92;5003843;57;1141001;-77
2024/03/25 18:27:27;;;;;;;9.83;6.33;;;;;;;7.73;100.00;99685.70;4923931;57;1138745;-81
2024/03/25 18:32:33;;;;;;;9.50;6.50;;;;;;;7.63;100.00;99690.88;4919811;58;1134534;-79
2024/03/25 18:37:38;;;;;;;11.80;6.37;;;;;;;7.58;100.00;99691.70;4926423;58;1134676;-75
2024/03/25 18:42:45;;;;;;;15.20;9.53;;;;;;;7.59;100.00;99696.48;4900234;58;1139014;-76
2024/03/25 18:47:50;;;;;;;483.20;194.80;;;;;;;7.57;100.00;99697.92;4897793;58;1138748;-75
2024/03/25 18:52:56;;;;;;;197.25;100.82;;;;;;;7.61;100.00;99698.05;4908378;58;1144993;-78
2024/03/25 18:58:07;;;;;;;56.43;26.33;;;;;;;7.68;100.00;99698.38;4922704;58;1145065;-79
2024/03/25 19:03:10;;;;;;;39.97;16.10;;;;;;;7.71;100.00;99696.36;4894036;58;1140969;-76
2024/03/25 19:08:16;;;;;;;60.80;28.57;;;;;;;7.68;100.00;99697.91;4894801;58;1138629;-74
2024/03/25 19:13:21;;;;;;;30.57;14.73;;;;;;;7.65;100.00;99694.67;4922307;58;1138567;-76
2024/03/25 19:18:27;;;;;;;15.30;8.80;;;;;;;7.52;100.00;99697.43;4889741;58;1138586;-76
2024/03/25 19:23:33;;;;;;;42.33;16.57;;;;;;;7.37;100.00;99703.88;4933915;57;1139097;-81
2024/03/25 19:28:40;;;;;;;56.10;27.17;;;;;;;7.29;100.00;99704.97;4995985;56;1140895;-84
2024/03/25 19:33:46;;;;;;;51.80;24.70;;;;;;;7.25;100.00;99708.78;4986177;57;1140514;-77
2024/03/25 19:38:51;;;;;;;138.90;67.93;;;;;;;7.25;100.00;99705.67;4951481;58;1140937;-78
2024/03/25 19:43:59;;;;;;;150.75;73.52;;;;;;;7.27;100.00;99702.45;4956951;58;1140923;-80
2024/03/25 19:49:05;;;;;;;136.77;64.53;;;;;;;7.22;100.00;99705.91;4986988;58;1146358;-77
2024/03/25 19:54:11;;;;;;;135.83;63.90;;;;;;;7.15;100.00;99711.28;4968001;58;1140931;-76
2024/03/25 19:59:16;;;;;;;148.30;63.73;;;;;;;7.07;100.00;99714.95;4950298;58;1140974;-74
2024/03/25 20:04:22;;;;;;;146.57;65.30;;;;;;;6.99;100.00;99714.23;4939872;57;1142860;-78
2024/03/25 20:09:28;;;;;;;170.27;75.90;;;;;;;6.95;100.00;99713.27;4888224;56;1142891;-78
2024/03/25 20:14:33;;;;;;;164.90;75.40;;;;;;;6.91;100.00;99710.50;4910002;57;1143032;-76
2024/03/25 20:19:39;;;;;;;154.00;72.13;;;;;;;6.88;100.00;99722.55;4945937;58;1142742;-79
2024/03/25 20:24:45;;;;;;;171.60;76.53;;;;;;;6.69;100.00;99721.31;4979557;57;1140767;-75
2024/03/25 20:29:51;;;;;;;142.97;58.90;;;;;;;6.60;100.00;99722.45;5058068;57;1141079;-77
2024/03/25 20:35:02;;;;;;;656.37;232.03;;;;;;;6.52;100.00;99730.92;5057663;57;1140821;-77
2024/03/25 20:40:05;;;;;;;339.93;113.23;;;;;;;6.45;100.00;99737.55;5075570;57;1142996;-79
2024/03/25 20:45:11;;;;;;;99.33;38.70;;;;;;;6.41;100.00;99732.66;5000602;57;1142796;-74
2024/03/25 20:50:17;;;;;;;89.37;37.10;;;;;;;6.32;100.00;99738.09;4884566;59;1140717;-77
2024/03/25 20:55:24;;;;;;;89.07;40.00;;;;;;;6.19;100.00;99746.02;5064981;57;1140850;-74
2024/03/25 21:00:29;;;;;;;83.93;35.63;;;;;;;6.03;100.00;99745.43;5022301;57;1138644;-78
2024/03/25 21:05:35;;;;;;;67.67;32.43;;;;;;;6.02;100.00;99752.94;5058580;57;1138660;-75
2024/03/25 21:10:41;;;;;;;74.70;35.23;;;;;;;5.99;100.00;99747.91;5056709;57;1138444;-75
2024/03/25 21:15:47;;;;;;;74.33;33.57;;;;;;;5.96;100.00;99754.67;4976271;58;1139083;-77
2024/03/25 21:20:52;;;;;;;476.57;166.50;;;;;;;5.92;100.00;99756.70;4976268;58;1138682;-76
2024/03/25 21:25:58;;;;;;;185.73;70.33;;;;;;;5.92;100.00;99758.02;4975808;58;1144805;-78
2024/03/25 21:31:07;;;;;;;102.43;41.27;;;;;;;5.93;100.00;99758.38;4994754;57;1143173;-80
2024/03/25 21:36:14;;;;;;;61.53;29.35;;;;;;;5.87;100.00;99756.14;5010234;56;1141109;-80
2024/03/25 21:41:20;;;;;;;103.30;44.00;;;;;;;5.71;100.00;99752.91;5004722;57;1138465;-73
2024/03/25 21:46:25;;;;;;;87.37;35.60;;;;;;;5.60;100.00;99751.52;5038833;57;1140465;-73
2024/03/25 21:51:31;;;;;;;89.17;34.10;;;;;;;5.42;100.00;99762.80;5019246;57;1138513;-75
2024/03/25 21:56:37;;;;;;;101.43;39.30;;;;;;;5.32;100.00;99756.98;5017988;57;1138595;-74
2024/03/25 22:01:43;;;;;;;98.13;41.00;;;;;;;5.23;100.00;99761.89;5038294;57;1142747;-75
2024/03/25 22:06:49;;;;;;;129.97;56.20;;;;;;;5.25;100.00;99755.23;5017881;57;1140988;-75
2024/03/25 22:11:54;;;;;;;97.10;40.60;;;;;;;5.27;100.00;99762.53;5018988;57;1140626;-73
2024/03/25 22:17:00;;;;;;;88.45;36.83;;;;;;;5.01;100.00;99771.31;5019147;57;1138762;-74
2024/03/25 22:22:06;;;;;;;473.90;105.07;;;;;;;4.74;100.00;99777.88;5020579;57;1142594;-75
2024/03/25 22:27:12;;;;;;;499.38;111.88;;;;;;;4.54;100.00;99782.65;4993176;57;1142922;-74
2024/03/25 22:32:17;;;;;;;150.18;45.50;;;;;;;4.55;100.00;99783.49;4974124;57;1142929;-75
2024/03/25 22:37:25;;;;;;;100.75;31.40;;;;;;;4.58;100.00;99786.73;5029364;57;1140633;-75
2024/03/25 22:42:30;;;;;;;90.67;27.57;;;;;;;4.65;100.00;99778.48;4957014;58;1140604;-75
2024/03/25 22:47:36;;;;;;;81.60;23.12;;;;;;;4.75;100.00;99784.80;5035752;56;1140606;-74
2024/03/25 22:52:42;;;;;;;71.70;24.43;;;;;;;4.83;100.00;99783.84;5040920;57;1138567;-75
2024/03/25 22:57:47;;;;;;;78.40;27.83;;;;;;;4.85;100.00;99782.80;5029709;57;1138759;-73
2024/03/25 23:02:53;;;;;;;68.97;23.93;;;;;;;4.76;100.00;99788.63;5007047;57;1138629;-74
2024/03/25 23:07:59;;;;;;;69.53;22.98;;;;;;;4.68;100.00;99800.56;4976730;58;1138710;-73
2024/03/25 23:13:04;;;;;;;70.07;23.70;;;;;;;4.60;100.00;99803.19;4996230;58;1138600;-74
2024/03/25 23:18:10;;;;;;;74.90;24.73;;;;;;;4.53;100.00;99805.00;4977261;58;1138842;-74
2024/03/25 23:23:17;;;;;;;70.55;24.98;;;;;;;4.50;100.00;99805.20;4985821;57;1138630;-76
2024/03/25 23:28:23;;;;;;;60.25;22.13;;;;;;;4.51;100.00;99809.50;5000642;57;1138449;-73
2024/03/25 23:33:29;;;;;;;57.40;23.20;;;;;;;4.48;100.00;99810.99;5034937;57;1138723;-74
2024/03/25 23:38:35;;;;;;;43.23;20.57;;;;;;;4.49;100.00;99815.30;5019032;57;1138958;-74